createdAt,value
2023-03-21T00:00:31.963Z,96321.88
2023-03-21T00:02:58.525Z,96325.09
2023-03-21T00:05:25.094Z,96318.56
2023-03-21T00:07:52.007Z,96316.59
2023-03-21T00:10:29.749Z,96320.41
2023-03-21T00:13:05.782Z,96310.25
2023-03-21T00:15:42.638Z,96314.69
2023-03-21T00:18:15.962Z,96315.25
2023-03-21T00:20:47.462Z,96318.59
2023-03-21T00:23:13.985Z,96318.88
2023-03-21T00:25:40.492Z,96319.72
2023-03-21T00:28:08.588Z,96314.44
2023-03-21T00:30:35.480Z,96307.06
2023-03-21T00:33:08.936Z,96306.38
2023-03-21T00:36:06.418Z,96308.88
2023-03-21T00:38:34.211Z,96309.69
2023-03-21T00:41:04.660Z,96311.09
2023-03-21T00:43:34.205Z,96303.72
2023-03-21T00:46:00.897Z,96306.38
2023-03-21T00:52:40.578Z,96296.75
2023-03-21T00:55:08.182Z,96295.22
2023-03-21T00:57:39.274Z,96294.41
2023-03-21T01:00:08.014Z,96298.00
2023-03-21T01:02:34.554Z,96296.09
2023-03-21T01:05:01.117Z,96289.13
2023-03-21T01:10:08.056Z,96291.34
2023-03-21T01:12:34.569Z,96282.72
2023-03-21T01:15:01.070Z,96283.25
2023-03-21T01:17:27.576Z,96285.22
2023-03-21T01:19:54.120Z,96288.09
2023-03-21T01:23:09.280Z,96287.81
2023-03-21T01:25:35.986Z,96282.53
2023-03-21T01:28:02.842Z,96283.50
2023-03-21T01:30:33.925Z,96273.78
2023-03-21T01:33:03.475Z,96271.28
2023-03-21T01:35:40.830Z,96276.94
2023-03-21T01:38:11.539Z,96272.63
2023-03-21T01:40:38.230Z,96280.56
2023-03-21T01:43:04.940Z,96269.88
2023-03-21T01:45:50.512Z,96268.44
2023-03-21T01:48:17.661Z,96267.75
2023-03-21T01:50:44.309Z,96267.19
2023-03-21T01:55:13.347Z,96263.66
2023-03-21T01:57:58.542Z,96262.53
2023-03-21T02:00:31.872Z,96255.44
2023-03-21T02:03:52.287Z,96244.84
2023-03-21T02:06:31.881Z,96245.38
2023-03-21T02:09:00.830Z,96238.56
2023-03-21T02:11:29.887Z,96234.78
2023-03-21T02:14:06.373Z,96242.38
2023-03-21T02:16:52.111Z,96240.16
2023-03-21T02:19:32.890Z,96238.16
2023-03-21T02:22:05.649Z,96236.06
2023-03-21T02:24:32.515Z,96238.13
2023-03-21T02:27:10.373Z,96232.84
2023-03-21T02:30:45.587Z,96226.03
2023-03-21T02:33:20.371Z,96230.47
2023-03-21T02:35:56.719Z,96231.13
2023-03-21T02:38:31.016Z,96231.41
2023-03-21T02:40:57.521Z,96236.94
2023-03-21T02:44:06.695Z,96236.63
2023-03-21T02:46:48.993Z,96240.22
2023-03-21T02:49:27.826Z,96240.34
2023-03-21T02:53:13.283Z,96242.59
2023-03-21T02:55:42.508Z,96240.34
2023-03-21T02:58:13.414Z,96241.59
2023-03-21T03:00:42.901Z,96241.00
2023-03-21T03:03:14.110Z,96244.72
2023-03-21T03:05:48.167Z,96248.19
2023-03-21T03:09:02.195Z,96251.22
2023-03-21T03:11:29.493Z,96245.16
2023-03-21T03:14:21.248Z,96242.97
2023-03-21T03:16:52.217Z,96246.06
2023-03-21T03:19:27.372Z,96243.47
2023-03-21T03:21:59.626Z,96248.16
2023-03-21T03:25:12.607Z,96255.94
2023-03-21T03:27:44.997Z,96249.69
2023-03-21T03:30:13.135Z,96251.50
2023-03-21T03:32:47.526Z,96242.88
2023-03-21T03:35:15.413Z,96242.31
2023-03-21T03:37:42.331Z,96238.97
2023-03-21T03:40:11.889Z,96241.47
2023-03-21T03:42:42.119Z,96245.31
2023-03-21T03:45:10.031Z,96243.41
2023-03-21T03:47:57.653Z,96250.72
2023-03-21T03:50:24.348Z,96245.94
2023-03-21T03:53:09.920Z,96237.94
2023-03-21T03:55:43.638Z,96245.09
2023-03-21T03:58:21.592Z,96244.41
2023-03-21T04:00:50.799Z,96243.19
2023-03-21T04:03:18.793Z,96237.00
2023-03-21T04:05:48.045Z,96238.34
2023-03-21T04:08:15.562Z,96239.53
2023-03-21T04:10:42.888Z,96239.91
2023-03-21T04:13:09.780Z,96234.75
2023-03-21T04:15:36.408Z,96240.28
2023-03-21T04:18:03.419Z,96246.75
2023-03-21T04:20:36.645Z,96247.72
2023-03-21T04:23:04.044Z,96239.81
2023-03-21T04:25:34.132Z,96246.41
2023-03-21T04:28:00.965Z,96246.75
2023-03-21T04:30:27.493Z,96252.41
2023-03-21T04:33:01.221Z,96245.84
2023-03-21T04:35:28.525Z,96246.09
2023-03-21T04:37:55.284Z,96248.81
2023-03-21T04:40:21.942Z,96254.94
2023-03-21T04:42:48.869Z,96255.66
2023-03-21T04:45:15.885Z,96250.25
2023-03-21T04:47:42.945Z,96254.56
2023-03-21T04:50:10.788Z,96250.50
2023-03-21T04:52:37.295Z,96259.47
2023-03-21T04:55:03.956Z,96262.59
2023-03-21T04:57:30.537Z,96264.50
2023-03-21T04:59:57.083Z,96267.28
2023-03-21T05:02:23.595Z,96272.78
2023-03-21T05:04:50.293Z,96264.16
2023-03-21T05:07:16.802Z,96265.00
2023-03-21T05:09:43.474Z,96263.09
2023-03-21T05:14:08.536Z,96267.72
2023-03-21T05:16:36.556Z,96272.03
2023-03-21T05:19:03.940Z,96271.47
2023-03-21T05:21:41.795Z,96275.19
2023-03-21T05:24:12.300Z,96283.41
2023-03-21T05:26:39.705Z,96275.41
2023-03-21T05:29:07.046Z,96278.84
2023-03-21T05:31:33.582Z,96286.41
2023-03-21T05:34:00.437Z,96279.81
2023-03-21T05:36:26.986Z,96279.59
2023-03-21T05:38:53.526Z,96285.69
2023-03-21T05:41:21.479Z,96283.16
2023-03-21T05:43:48.095Z,96288.78
2023-03-21T05:48:42.324Z,96290.69
2023-03-21T05:51:08.916Z,96290.44
2023-03-21T05:53:35.487Z,96293.19
2023-03-21T05:57:13.233Z,96288.56
2023-03-21T05:59:39.851Z,96286.75
2023-03-21T06:02:06.387Z,96288.44
2023-03-21T06:04:32.949Z,96290.59
2023-03-21T06:06:59.543Z,96291.31
2023-03-21T06:10:58.209Z,96296.00
2023-03-21T06:13:24.750Z,96292.25
2023-03-21T06:15:51.290Z,96287.66
2023-03-21T06:18:18.054Z,96285.75
2023-03-21T06:20:44.899Z,96276.22
2023-03-21T06:23:11.503Z,96277.75
2023-03-21T06:25:38.231Z,96278.34
2023-03-21T06:28:04.871Z,96282.56
2023-03-21T06:33:03.129Z,96275.19
2023-03-21T06:35:29.641Z,96276.69
2023-03-21T06:37:58.512Z,96281.38
2023-03-21T06:40:25.052Z,96268.94
2023-03-21T06:42:51.667Z,96275.47
2023-03-21T06:45:19.771Z,96274.97
2023-03-21T06:47:46.713Z,96273.78
2023-03-21T06:50:13.240Z,96271.97
2023-03-21T06:52:39.873Z,96266.53
2023-03-21T06:55:06.650Z,96270.72
2023-03-21T06:57:33.181Z,96269.91
2023-03-21T06:59:59.724Z,96262.84
2023-03-21T07:02:26.556Z,96274.34
2023-03-21T07:04:53.769Z,96263.22
2023-03-21T07:07:20.592Z,96270.94
2023-03-21T07:09:47.099Z,96268.88
2023-03-21T07:12:13.612Z,96267.25
2023-03-21T07:14:40.114Z,96272.09
2023-03-21T07:17:06.599Z,96263.28
2023-03-21T07:19:33.182Z,96256.63
2023-03-21T07:22:01.577Z,96262.44
2023-03-21T07:24:28.137Z,96257.13
2023-03-21T07:26:54.698Z,96252.25
2023-03-21T07:29:23.257Z,96254.38
2023-03-21T07:31:49.845Z,96256.16
2023-03-21T07:34:17.098Z,96252.72
2023-03-21T07:36:43.631Z,96245.09
2023-03-21T07:39:10.160Z,96245.28
2023-03-21T07:41:36.713Z,96248.56
2023-03-21T07:44:03.763Z,96242.84
2023-03-21T07:46:30.443Z,96245.34
2023-03-21T07:48:56.981Z,96240.03
2023-03-21T07:51:23.535Z,96239.25
2023-03-21T07:53:50.192Z,96230.78
2023-03-21T07:56:16.845Z,96231.25
2023-03-21T07:58:43.359Z,96226.09
2023-03-21T08:01:09.904Z,96225.59
2023-03-21T08:03:36.548Z,96231.25
2023-03-21T08:06:03.169Z,96227.44
2023-03-21T08:08:29.767Z,96222.94
2023-03-21T08:10:56.326Z,96229.78
2023-03-21T08:13:23.098Z,96219.81
2023-03-21T08:15:49.661Z,96218.31
2023-03-21T08:18:16.198Z,96217.31
2023-03-21T08:20:42.754Z,96213.91
2023-03-21T08:23:09.289Z,96209.59
2023-03-21T08:25:36.884Z,96206.31
2023-03-21T08:28:03.784Z,96205.88
2023-03-21T08:30:30.635Z,96204.94
2023-03-21T08:33:01.766Z,96200.00
2023-03-21T08:35:29.354Z,96199.50
2023-03-21T08:37:55.900Z,96195.06
2023-03-21T08:40:22.418Z,96194.81
2023-03-21T08:42:49.082Z,96196.53
2023-03-21T08:45:16.830Z,96191.44
2023-03-21T08:47:43.789Z,96189.16
2023-03-21T08:50:12.022Z,96180.50
2023-03-21T08:52:38.566Z,96179.16
2023-03-21T08:55:05.210Z,96183.88
2023-03-21T08:57:31.746Z,96187.63
2023-03-21T08:59:58.273Z,96191.91
2023-03-21T09:02:24.776Z,96180.47
2023-03-21T09:04:54.944Z,96184.22
2023-03-21T09:07:22.232Z,96178.66
2023-03-21T09:09:58.054Z,96174.38
2023-03-21T09:12:29.772Z,96167.97
2023-03-21T09:14:56.347Z,96166.91
2023-03-21T09:17:22.881Z,96164.66
2023-03-21T09:19:50.895Z,96157.13
2023-03-21T09:22:18.070Z,96161.09
2023-03-21T09:24:47.820Z,96155.28
2023-03-21T09:27:15.822Z,96156.09
2023-03-21T09:29:44.675Z,96153.44
2023-03-21T09:32:12.232Z,96157.56
2023-03-21T09:34:41.405Z,96150.94
2023-03-21T09:37:13.412Z,96166.44
2023-03-21T09:39:41.049Z,96154.69
2023-03-21T09:42:17.949Z,96157.31
2023-03-21T09:44:53.754Z,96152.56
2023-03-21T09:47:22.202Z,96155.59
2023-03-21T09:50:17.309Z,96153.50
2023-03-21T09:52:43.925Z,96155.19
2023-03-21T09:55:19.044Z,96152.06
2023-03-21T09:57:47.803Z,96143.91
2023-03-21T10:00:25.798Z,96145.66
2023-03-21T10:02:57.234Z,96138.16
2023-03-21T10:05:25.850Z,96131.97
2023-03-21T10:08:11.072Z,96129.88
2023-03-21T10:10:41.758Z,96122.56
2023-03-21T10:13:14.028Z,96120.53
2023-03-21T10:15:40.943Z,96132.78
2023-03-21T10:18:08.579Z,96118.25
2023-03-21T10:20:36.364Z,96117.41
2023-03-21T10:23:07.809Z,96116.78
2023-03-21T10:25:36.576Z,96115.59
2023-03-21T10:28:06.651Z,96107.09
2023-03-21T10:30:36.678Z,96104.22
2023-03-21T10:33:05.711Z,96106.94
2023-03-21T10:35:34.096Z,96099.25
2023-03-21T10:38:01.675Z,96090.16
2023-03-21T10:40:28.438Z,96101.97
2023-03-21T10:42:55.727Z,96096.19
2023-03-21T10:45:22.812Z,96093.09
2023-03-21T10:47:50.595Z,96097.00
2023-03-21T10:50:20.483Z,96089.75
2023-03-21T10:52:49.844Z,96091.00
2023-03-21T10:55:28.869Z,96089.97
2023-03-21T10:57:58.792Z,96095.19
2023-03-21T11:00:27.460Z,96094.34
2023-03-21T11:02:54.492Z,96087.06
2023-03-21T11:05:34.154Z,96080.63
2023-03-21T11:08:03.040Z,96075.41
2023-03-21T11:10:34.499Z,96072.44
2023-03-21T11:13:06.754Z,96072.34
2023-03-21T11:15:33.290Z,96066.16
2023-03-21T11:18:00.709Z,96062.56
2023-03-21T11:20:30.919Z,96060.69
2023-03-21T11:22:57.562Z,96053.69
2023-03-21T11:25:37.285Z,96056.91
2023-03-21T11:28:09.533Z,96048.47
2023-03-21T11:30:36.114Z,96039.97
2023-03-21T11:33:06.392Z,96042.03
2023-03-21T11:35:34.874Z,96049.25
2023-03-21T11:38:01.392Z,96041.06
2023-03-21T11:40:29.246Z,96044.09
2023-03-21T11:42:56.645Z,96041.47
2023-03-21T11:45:30.598Z,96038.97
2023-03-21T11:48:01.223Z,96037.25
2023-03-21T11:50:30.783Z,96022.91
2023-03-21T11:52:57.266Z,96019.50
2023-03-21T11:55:47.075Z,96023.06
2023-03-21T11:58:26.514Z,96013.81
2023-03-21T12:01:02.278Z,96013.28
2023-03-21T12:03:48.584Z,96010.19
2023-03-21T12:06:28.578Z,96005.75
2023-03-21T12:09:04.084Z,95999.41
2023-03-21T12:11:45.906Z,95999.59
2023-03-21T12:14:45.000Z,96003.31
2023-03-21T12:17:37.883Z,95994.75
2023-03-21T12:20:16.362Z,96002.47
2023-03-21T12:22:52.433Z,96001.84
2023-03-21T12:25:24.677Z,96008.38
2023-03-21T12:27:53.982Z,96003.75
2023-03-21T12:30:24.317Z,95997.91
2023-03-21T12:33:09.404Z,95994.16
2023-03-21T12:35:54.005Z,95982.41
2023-03-21T12:38:20.494Z,95992.53
2023-03-21T12:41:16.151Z,95990.88
2023-03-21T12:43:48.430Z,95979.25
2023-03-21T12:46:19.400Z,95981.75
2023-03-21T12:48:47.523Z,95978.09
2023-03-21T12:51:19.903Z,95973.34
2023-03-21T12:54:08.000Z,95970.47
2023-03-21T12:56:34.488Z,95965.22
2023-03-21T12:59:23.054Z,95956.63
2023-03-21T13:01:53.276Z,95955.75
2023-03-21T13:04:35.617Z,95950.81
2023-03-21T13:07:04.514Z,95949.38
2023-03-21T13:09:37.892Z,95949.97
2023-03-21T13:12:21.133Z,95941.47
2023-03-21T13:14:56.676Z,95934.53
2023-03-21T13:17:28.061Z,95940.38
2023-03-21T13:19:58.682Z,95931.94
2023-03-21T13:22:27.763Z,95936.41
2023-03-21T13:25:05.829Z,95937.31
2023-03-21T13:27:32.325Z,95931.09
2023-03-21T13:30:07.569Z,95925.22
2023-03-21T13:32:34.228Z,95929.50
2023-03-21T13:35:18.430Z,95928.44
2023-03-21T13:37:53.201Z,95920.03
2023-03-21T13:40:35.385Z,95920.22
2023-03-21T13:43:03.767Z,95913.78
2023-03-21T13:45:44.820Z,95905.06
2023-03-21T13:48:29.735Z,95904.59
2023-03-21T13:51:05.834Z,95912.50
2023-03-21T13:53:33.747Z,95908.13
2023-03-21T13:56:21.006Z,95895.72
2023-03-21T13:58:47.570Z,95900.03
2023-03-21T14:01:32.787Z,95897.78
2023-03-21T14:04:11.291Z,95886.38
2023-03-21T14:06:58.672Z,95893.50
2023-03-21T14:09:29.217Z,95887.69
2023-03-21T14:12:03.720Z,95888.22
2023-03-21T14:14:37.571Z,95880.84
2023-03-21T14:17:11.789Z,95874.38
2023-03-21T14:19:38.859Z,95875.41
2023-03-21T14:22:10.277Z,95872.72
2023-03-21T14:24:36.776Z,95867.19
2023-03-21T14:27:05.616Z,95880.50
2023-03-21T14:29:35.485Z,95878.38
2023-03-21T14:32:02.473Z,95871.16
2023-03-21T14:34:31.266Z,95871.81
2023-03-21T14:36:58.942Z,95873.00
2023-03-21T14:39:32.638Z,95875.13
2023-03-21T14:42:06.436Z,95871.81
2023-03-21T14:44:58.371Z,95872.25
2023-03-21T14:47:29.021Z,95874.66
2023-03-21T14:49:56.535Z,95864.00
2023-03-21T14:52:22.994Z,95868.69
2023-03-21T14:54:50.196Z,95866.03
2023-03-21T14:57:31.081Z,95866.25
2023-03-21T15:00:00.737Z,95860.25
2023-03-21T15:02:29.338Z,95863.84
2023-03-21T15:04:57.642Z,95859.13
2023-03-21T15:07:29.413Z,95863.25
2023-03-21T15:09:57.822Z,95857.69
2023-03-21T15:12:24.371Z,95864.34
2023-03-21T15:14:50.917Z,95862.91
2023-03-21T15:17:17.678Z,95860.66
2023-03-21T15:19:44.288Z,95863.00
2023-03-21T15:22:16.869Z,95864.31
2023-03-21T15:24:45.700Z,95856.81
2023-03-21T15:27:17.530Z,95858.72
2023-03-21T15:29:44.314Z,95860.19
2023-03-21T15:32:16.294Z,95862.44
2023-03-21T15:34:43.382Z,95854.97
2023-03-21T15:37:17.166Z,95858.75
2023-03-21T15:39:44.182Z,95855.63
2023-03-21T15:42:24.121Z,95863.47
2023-03-21T15:44:53.275Z,95855.88
2023-03-21T15:47:38.454Z,95860.59
2023-03-21T15:50:24.809Z,95858.75
2023-03-21T15:52:52.333Z,95861.81
2023-03-21T15:55:22.394Z,95855.41
2023-03-21T15:57:50.149Z,95854.03
2023-03-21T16:00:18.478Z,95852.41
2023-03-21T16:02:45.717Z,95852.00
2023-03-21T16:05:24.470Z,95857.41
2023-03-21T16:07:51.150Z,95857.84
2023-03-21T16:10:28.651Z,95857.84
2023-03-21T16:12:55.494Z,95855.88
2023-03-21T16:15:22.948Z,95855.50
2023-03-21T16:18:03.613Z,95855.13
2023-03-21T16:20:40.525Z,95856.16
2023-03-21T16:23:12.295Z,95851.03
2023-03-21T16:25:39.062Z,95852.94
2023-03-21T16:28:10.703Z,95856.50
2023-03-21T16:30:38.733Z,95857.16
2023-03-21T16:33:05.426Z,95859.47
2023-03-21T16:35:31.930Z,95865.03
2023-03-21T16:37:58.496Z,95861.50
2023-03-21T16:40:30.342Z,95872.22
2023-03-21T16:42:56.888Z,95887.47
2023-03-21T16:45:23.690Z,95885.19
2023-03-21T16:47:50.353Z,95887.34
2023-03-21T16:50:27.912Z,95887.31
2023-03-21T16:52:55.415Z,95889.66
2023-03-21T16:55:22.272Z,95898.63
2023-03-21T16:57:50.191Z,95902.09
2023-03-21T17:00:20.710Z,95891.91
2023-03-21T17:02:48.132Z,95895.75
2023-03-21T17:05:14.870Z,95899.63
2023-03-21T17:07:41.936Z,95906.28
2023-03-21T17:10:27.503Z,95906.72
2023-03-21T17:12:54.213Z,95903.72
2023-03-21T17:15:21.382Z,95910.44
2023-03-21T17:17:50.134Z,95911.97
2023-03-21T17:20:21.446Z,95917.41
2023-03-21T17:22:48.803Z,95920.84
2023-03-21T17:25:16.518Z,95914.97
2023-03-21T17:27:43.069Z,95926.59
2023-03-21T17:30:28.856Z,95927.53
2023-03-21T17:32:55.452Z,95929.75
2023-03-21T17:35:22.958Z,95931.75
2023-03-21T17:37:52.756Z,95941.72
2023-03-21T17:40:24.313Z,95936.47
2023-03-21T17:42:51.675Z,95942.31
2023-03-21T17:45:18.675Z,95945.06
2023-03-21T17:47:45.977Z,95951.69
2023-03-21T17:50:23.725Z,95952.91
2023-03-21T17:52:50.872Z,95960.16
2023-03-21T17:55:19.636Z,95963.59
2023-03-21T17:57:46.782Z,95966.69
2023-03-21T18:00:18.404Z,95973.09
2023-03-21T18:02:44.981Z,95980.63
2023-03-21T18:05:11.662Z,95975.19
2023-03-21T18:08:07.855Z,95982.22
2023-03-21T18:10:26.485Z,95982.59
2023-03-21T18:12:55.985Z,95986.16
2023-03-21T18:15:24.278Z,95986.47
2023-03-21T18:17:51.590Z,95989.69
2023-03-21T18:20:21.060Z,95987.53
2023-03-21T18:22:48.094Z,95996.03
2023-03-21T18:25:15.528Z,95995.88
2023-03-21T18:28:06.845Z,95988.44
2023-03-21T18:30:47.686Z,95987.44
2023-03-21T18:33:15.501Z,95998.97
2023-03-21T18:35:42.131Z,96002.13
2023-03-21T18:38:08.701Z,96006.78
2023-03-21T18:40:35.203Z,96000.81
2023-03-21T18:43:59.365Z,96006.84
2023-03-21T18:45:48.329Z,96004.19
2023-03-21T18:48:14.877Z,96012.47
2023-03-21T18:50:41.778Z,96013.47
2023-03-21T18:53:09.394Z,96017.97
2023-03-21T18:55:45.828Z,96020.63
2023-03-21T18:58:13.126Z,96016.81
2023-03-21T19:00:40.484Z,96020.94
2023-03-21T19:03:19.278Z,96030.09
2023-03-21T19:05:51.245Z,96030.75
2023-03-21T19:08:17.754Z,96031.72
2023-03-21T19:10:45.313Z,96035.06
2023-03-21T19:13:12.426Z,96037.19
2023-03-21T19:15:41.366Z,96022.88
2023-03-21T19:18:41.502Z,96030.00
2023-03-21T19:20:54.739Z,96033.63
2023-03-21T19:23:21.653Z,96031.47
2023-03-21T19:25:48.204Z,96029.09
2023-03-21T19:29:43.300Z,96032.25
2023-03-21T19:32:09.847Z,96034.41
2023-03-21T19:34:36.874Z,96040.19
2023-03-21T19:37:03.549Z,96045.00
2023-03-21T19:39:30.357Z,96042.13
2023-03-21T19:42:14.760Z,96041.78
2023-03-21T19:44:42.036Z,96049.03
2023-03-21T19:47:09.026Z,96035.09
2023-03-21T19:50:11.737Z,96050.34
2023-03-21T19:52:22.458Z,96051.50
2023-03-21T19:54:49.036Z,96054.31
2023-03-21T19:57:16.395Z,96057.13
2023-03-21T19:59:42.949Z,96061.75
2023-03-21T20:02:33.961Z,96069.50
2023-03-21T20:04:57.711Z,96070.75
2023-03-21T20:07:24.246Z,96067.56
2023-03-21T20:09:53.811Z,96068.03
2023-03-21T20:12:23.172Z,96072.16
2023-03-21T20:14:57.965Z,96070.97
2023-03-21T20:17:31.813Z,96070.75
